Jubilacion — WCW9583 — position and weather

sailwx.info

Track history (hours):
 
Tides and Currents Weather Stations Pressure Air Temp Water Temp Dewpoint Dewpoint Depression Visibility Wind Speed Wind Dir Waves Ship Positions

Jubilacion

Owner: BUTLER, ELMER A, COTTONWOOD, CA. More information available from US FCC via Universal Licensing System and Coast Guard Vessel Documentation Center.

Last reported at 2017-Sep-30 01:59 UTC. Time now 2017-Oct-19 09:38 UTC.
Position N 47°38' W 122°24'.
Warning: this ship's position is 19 days out of date.

Length 13 m.

Type: Pleasure craft. MMSI: 367147050.

Date/timePositionNaut miles runAvg speedWind from/ knotsBaromVisibWave heightAir tempDewpointWater temp
2017-Sep-30 01:59N 47°38' W 122°24'0 0.0
2017-Sep-30 01:28N 47°38' W 122°24'0 0.0
2017-Sep-30 00:59N 47°38' W 122°24'0 0.0
2017-Sep-30 00:28N 47°38' W 122°24'0 0.0
2017-Sep-29 23:59N 47°38' W 122°24'0 0.0
2017-Sep-29 23:29N 47°38' W 122°24'0 0.0
2017-Sep-29 22:58N 47°38' W 122°24'0 0.0
2017-Sep-29 22:29N 47°38' W 122°24'0 0.0
2017-Sep-29 21:58N 47°38' W 122°24'0 0.0
2017-Sep-29 21:29N 47°38' W 122°24'0 0.0
2017-Sep-29 20:59N 47°38' W 122°24'0 0.0
2017-Sep-29 20:29N 47°38' W 122°24'0 0.4
2017-Sep-29 20:00N 47°38' W 122°24'0 0.3
2017-Sep-29 19:30N 47°38' W 122°24'3 6.6
2017-Sep-29 19:01N 47°40' W 122°27'4 2.2
2017-Sep-29 17:22N 47°43' W 122°31'3 6.6
2017-Sep-29 16:57N 47°45' W 122°28'3 6.5
2017-Sep-29 16:25N 47°48' W 122°29'3 6.4
2017-Sep-29 16:00N 47°51' W 122°30'3 7.0
2017-Sep-29 15:31N 47°54' W 122°31'42 2.0
2017-Sep-28 18:13N 48°34' W 122°52'24 6.4
2017-Sep-28 14:34N 48°50' W 123°19'1 7.1
2017-Sep-28 14:26N 48°50' W 123°20'3 7.2
2017-Sep-28 14:00N 48°52' W 123°24'1 2.2
2017-Sep-28 13:26N 48°53' W 123°24'0 0.0
2017-Sep-28 12:38N 48°53' W 123°24'0 0.0
2017-Sep-28 12:26N 48°53' W 123°24'0 0.0
2017-Sep-28 11:56N 48°53' W 123°24'0 0.0
2017-Sep-28 11:26N 48°53' W 123°24'0 0.0
2017-Sep-28 10:56N 48°53' W 123°24'0 0.0
2017-Sep-28 10:14N 48°53' W 123°24'0 0.0
2017-Sep-28 09:56N 48°53' W 123°24'0 0.0
2017-Sep-28 09:14N 48°53' W 123°24'0 0.0
2017-Sep-28 08:50N 48°53' W 123°24'0 0.0
2017-Sep-28 08:26N 48°53' W 123°24'0 0.0
2017-Sep-28 07:50N 48°53' W 123°24'0 0.0
2017-Sep-28 07:29N 48°53' W 123°24'0 0.0
2017-Sep-28 06:56N 48°53' W 123°24'0 0.0
2017-Sep-28 06:26N 48°53' W 123°24'0 0.0
2017-Sep-28 05:56N 48°53' W 123°24'0 0.0
2017-Sep-28 05:20N 48°53' W 123°24'0 0.0
2017-Sep-28 04:56N 48°53' W 123°24'0 0.0
2017-Sep-28 03:59N 48°53' W 123°24'0 0.0
2017-Sep-28 03:20N 48°53' W 123°24'0 0.0
2017-Sep-28 02:56N 48°53' W 123°24'0 0.0
2017-Sep-28 02:26N 48°53' W 123°24'0 0.0
2017-Sep-28 01:59N 48°53' W 123°24'0 0.0
2017-Sep-28 01:20N 48°53' W 123°24'0 0.0
2017-Sep-28 00:53N 48°53' W 123°24'0 0.0
2017-Sep-28 00:29N 48°53' W 123°24'0 0.0
2017-Sep-27 23:56N 48°53' W 123°24'0 0.0
2017-Sep-27 23:20N 48°53' W 123°24'0 0.0
2017-Sep-27 22:56N 48°53' W 123°24'0 0.0
2017-Sep-27 22:08N 48°53' W 123°24'0 0.0
2017-Sep-27 21:56N 48°53' W 123°24'0 0.0
2017-Sep-27 21:20N 48°53' W 123°24'0 0.0
2017-Sep-27 20:56N 48°53' W 123°24'0 0.0
2017-Sep-27 20:26N 48°53' W 123°24'0 0.0
2017-Sep-27 19:38N 48°53' W 123°24'0 0.0
2017-Sep-27 19:26N 48°53' W 123°24'2 5.6
2017-Sep-27 19:01N 48°55' W 123°27'22 7.4
2017-Sep-27 15:59N 49°09' W 123°52'3 4.5
2017-Sep-27 15:26N 49°10' W 123°56'0 0.0
2017-Sep-27 14:13N 49°10' W 123°56'0 0.0
2017-Sep-27 13:50N 49°10' W 123°56'0 0.0
2017-Sep-27 13:26N 49°10' W 123°56'0 0.0
2017-Sep-27 12:50N 49°10' W 123°56'0 0.0
2017-Sep-27 12:26N 49°10' W 123°56'0 0.0
2017-Sep-27 11:44N 49°10' W 123°56'0 0.0
2017-Sep-27 11:17N 49°10' W 123°56'0 0.0
2017-Sep-27 10:56N 49°10' W 123°56'0 0.0
2017-Sep-27 10:26N 49°10' W 123°56'0 0.0
2017-Sep-27 09:59N 49°10' W 123°56'0 0.0
2017-Sep-27 09:29N 49°10' W 123°56'0 0.0
2017-Sep-27 08:47N 49°10' W 123°56'0 0.0
2017-Sep-27 08:14N 49°10' W 123°56'0 0.0
2017-Sep-27 07:56N 49°10' W 123°56'0 0.0
2017-Sep-27 07:29N 49°10' W 123°56'0 0.0
2017-Sep-27 06:59N 49°10' W 123°56'0 0.0
2017-Sep-27 06:29N 49°10' W 123°56'0 0.0
2017-Sep-27 05:59N 49°10' W 123°56'0 0.0
2017-Sep-27 05:29N 49°10' W 123°56'0 0.0
2017-Sep-27 04:53N 49°10' W 123°56'0 0.0
2017-Sep-27 04:28N 49°10' W 123°56'0 0.0
2017-Sep-27 03:56N 49°10' W 123°56'0 0.0
2017-Sep-27 03:29N 49°10' W 123°56'0 0.0
2017-Sep-27 02:59N 49°10' W 123°56'0 0.0
2017-Sep-27 02:23N 49°10' W 123°56'0 0.0
2017-Sep-27 01:59N 49°10' W 123°56'0 0.0
2017-Sep-27 01:26N 49°10' W 123°56'0 0.0
2017-Sep-27 00:59N 49°10' W 123°56'0 0.0
2017-Sep-27 00:29N 49°10' W 123°56'0 0.0
2017-Sep-26 23:59N 49°10' W 123°56'0 0.0
2017-Sep-26 23:05N 49°10' W 123°56'0 0.0
2017-Sep-26 22:59N 49°10' W 123°56'0 0.0
2017-Sep-26 22:29N 49°10' W 123°56'0 0.0
2017-Sep-26 21:58N 49°10' W 123°56'0 0.0
2017-Sep-26 21:29N 49°10' W 123°56'0 0.0
2017-Sep-26 20:59N 49°10' W 123°56'2 0.5
2017-Sep-26 17:17N 49°12' W 123°57'2 6.2
2017-Sep-26 16:55N 49°14' W 123°57'3 7.1
2017-Sep-26 16:30N 49°16' W 124°00'3 6.9
2017-Sep-26 16:00N 49°18' W 124°04'4 7.2
2017-Sep-26 15:30N 49°21' W 124°08'8 7.4
2017-Sep-26 14:25N 49°26' W 124°18'3 7.3
2017-Sep-26 14:00N 49°28' W 124°21'2 2.5
2017-Sep-26 13:07N 49°30' W 124°21'0 0.0
2017-Sep-26 08:26N 49°30' W 124°21'0 0.0
2017-Sep-26 07:55N 49°30' W 124°21'0 0.0
2017-Sep-26 07:23N 49°30' W 124°21'0 0.0
2017-Sep-26 04:07N 49°30' W 124°21'0 0.0
2017-Sep-26 03:46N 49°30' W 124°21'0 0.0
2017-Sep-26 02:50N 49°30' W 124°21'0 0.0
2017-Sep-26 02:25N 49°30' W 124°21'0 0.0
2017-Sep-26 01:58N 49°30' W 124°21'0 0.0
2017-Sep-25 22:34N 49°30' W 124°21'0 0.0
2017-Sep-25 21:10N 49°30' W 124°21'0 0.0
2017-Sep-25 20:41N 49°30' W 124°21'0 0.0
2017-Sep-25 18:40N 49°30' W 124°21'0 0.0
2017-Sep-25 18:22N 49°30' W 124°21'0 0.0
2017-Sep-25 16:22N 49°30' W 124°21'0 0.0
2017-Sep-25 15:46N 49°30' W 124°21'0 0.0
2017-Sep-25 15:28N 49°30' W 124°21'0 0.0
2017-Sep-25 14:58N 49°30' W 124°21'0 0.1
2017-Sep-25 14:23N 49°30' W 124°21'0 0.0
2017-Sep-25 13:56N 49°30' W 124°21'0 0.0
2017-Sep-25 13:17N 49°30' W 124°21'0 0.0
2017-Sep-25 11:20N 49°30' W 124°21'0 0.0
2017-Sep-25 10:56N 49°30' W 124°21'0 0.0
2017-Sep-25 05:11N 49°30' W 124°21'0 0.0
2017-Sep-25 04:41N 49°30' W 124°21'0 0.0
2017-Sep-25 03:17N 49°30' W 124°21'0 0.0
2017-Sep-25 02:20N 49°30' W 124°21'0 0.0
2017-Sep-25 01:14N 49°30' W 124°21'0 0.0
2017-Sep-25 00:59N 49°30' W 124°21'0 0.0
2017-Sep-25 00:20N 49°30' W 124°21'0 0.1
2017-Sep-24 23:55N 49°30' W 124°21'1 2.4
2017-Sep-24 23:30N 49°29' W 124°22'1 0.9
2017-Sep-24 22:23N 49°30' W 124°21'0 0.0
2017-Sep-24 21:50N 49°30' W 124°21'0 0.0
2017-Sep-24 21:29N 49°30' W 124°21'0 0.0
2017-Sep-24 20:56N 49°30' W 124°21'0 0.0
2017-Sep-24 20:06N 49°30' W 124°21'1 4.3
2017-Sep-24 19:56N 49°29' W 124°22'2 5.6
2017-Sep-24 19:30N 49°30' W 124°25'4 7.3
2017-Sep-24 19:00N 49°33' W 124°29'4 7.6
2017-Sep-24 18:30N 49°37' W 124°32'4 7.6
2017-Sep-24 17:59N 49°40' W 124°35'10 7.2
2017-Sep-24 16:33N 49°50' W 124°41'0 7.1
2017-Sep-24 16:29N 49°50' W 124°41'3 7.3
2017-Sep-24 16:00N 49°54' W 124°42'4 7.1
2017-Sep-24 15:28N 49°57' W 124°45'4 7.1
2017-Sep-24 14:55N 50°00' W 124°48'3 7.5
2017-Sep-24 14:29N 50°03' W 124°51'4 7.6
2017-Sep-24 14:00N 50°06' W 124°54'3 0.5
2017-Sep-24 08:11N 50°09' W 124°55'0 0.0
2017-Sep-24 07:50N 50°09' W 124°55'0 0.0
2017-Sep-24 07:23N 50°09' W 124°55'0 0.0
2017-Sep-24 06:53N 50°09' W 124°55'0 0.0
2017-Sep-24 03:47N 50°09' W 124°55'0 0.0
2017-Sep-24 03:20N 50°09' W 124°55'0 0.0
2017-Sep-24 01:41N 50°09' W 124°55'1 0.2
2017-Sep-23 23:11N 50°08' W 124°55'1 5.0
2017-Sep-23 22:57N 50°08' W 124°54'3 7.5
2017-Sep-23 22:30N 50°11' W 124°56'4 7.7
2017-Sep-23 22:00N 50°14' W 124°59'4 7.2
2017-Sep-23 21:30N 50°17' W 125°03'4 7.0
2017-Sep-23 21:00N 50°20' W 125°06'  
Track history (hours):
 
Tides and Currents Weather Stations Pressure Air Temp Water Temp Dewpoint Dewpoint Depression Visibility Wind Speed Wind Dir Waves Ship Positions

Jubilacion

Owner: BUTLER, ELMER A, COTTONWOOD, CA. More information available from US FCC via Universal Licensing System and Coast Guard Vessel Documentation Center.

Last reported at 2017-Sep-30 01:59 UTC. Time now 2017-Oct-19 09:38 UTC.
Position N 47°38' W 122°24'.
Warning: this ship's position is 19 days out of date.

Length 13 m.

Type: Pleasure craft. MMSI: 367147050.

Date/timePositionNaut miles runAvg speedWind from/ knotsBaromVisibWave heightAir tempDewpointWater temp
2017-Sep-30 01:59N 47°38' W 122°24'0 0.0
2017-Sep-30 01:28N 47°38' W 122°24'0 0.0
2017-Sep-30 00:59N 47°38' W 122°24'0 0.0
2017-Sep-30 00:28N 47°38' W 122°24'0 0.0
2017-Sep-29 23:59N 47°38' W 122°24'0 0.0
2017-Sep-29 23:29N 47°38' W 122°24'0 0.0
2017-Sep-29 22:58N 47°38' W 122°24'0 0.0
2017-Sep-29 22:29N 47°38' W 122°24'0 0.0
2017-Sep-29 21:58N 47°38' W 122°24'0 0.0
2017-Sep-29 21:29N 47°38' W 122°24'0 0.0
2017-Sep-29 20:59N 47°38' W 122°24'0 0.0
2017-Sep-29 20:29N 47°38' W 122°24'0 0.4
2017-Sep-29 20:00N 47°38' W 122°24'0 0.3
2017-Sep-29 19:30N 47°38' W 122°24'3 6.6
2017-Sep-29 19:01N 47°40' W 122°27'4 2.2
2017-Sep-29 17:22N 47°43' W 122°31'3 6.6
2017-Sep-29 16:57N 47°45' W 122°28'3 6.5
2017-Sep-29 16:25N 47°48' W 122°29'3 6.4
2017-Sep-29 16:00N 47°51' W 122°30'3 7.0
2017-Sep-29 15:31N 47°54' W 122°31'42 2.0
2017-Sep-28 18:13N 48°34' W 122°52'24 6.4
2017-Sep-28 14:34N 48°50' W 123°19'1 7.1
2017-Sep-28 14:26N 48°50' W 123°20'3 7.2
2017-Sep-28 14:00N 48°52' W 123°24'1 2.2
2017-Sep-28 13:26N 48°53' W 123°24'0 0.0
2017-Sep-28 12:38N 48°53' W 123°24'0 0.0
2017-Sep-28 12:26N 48°53' W 123°24'0 0.0
2017-Sep-28 11:56N 48°53' W 123°24'0 0.0
2017-Sep-28 11:26N 48°53' W 123°24'0 0.0
2017-Sep-28 10:56N 48°53' W 123°24'0 0.0
2017-Sep-28 10:14N 48°53' W 123°24'0 0.0
2017-Sep-28 09:56N 48°53' W 123°24'0 0.0
2017-Sep-28 09:14N 48°53' W 123°24'0 0.0
2017-Sep-28 08:50N 48°53' W 123°24'0 0.0
2017-Sep-28 08:26N 48°53' W 123°24'0 0.0
2017-Sep-28 07:50N 48°53' W 123°24'0 0.0
2017-Sep-28 07:29N 48°53' W 123°24'0 0.0
2017-Sep-28 06:56N 48°53' W 123°24'0 0.0
2017-Sep-28 06:26N 48°53' W 123°24'0 0.0
2017-Sep-28 05:56N 48°53' W 123°24'0 0.0
2017-Sep-28 05:20N 48°53' W 123°24'0 0.0
2017-Sep-28 04:56N 48°53' W 123°24'0 0.0
2017-Sep-28 03:59N 48°53' W 123°24'0 0.0
2017-Sep-28 03:20N 48°53' W 123°24'0 0.0
2017-Sep-28 02:56N 48°53' W 123°24'0 0.0
2017-Sep-28 02:26N 48°53' W 123°24'0 0.0
2017-Sep-28 01:59N 48°53' W 123°24'0 0.0
2017-Sep-28 01:20N 48°53' W 123°24'0 0.0
2017-Sep-28 00:53N 48°53' W 123°24'0 0.0
2017-Sep-28 00:29N 48°53' W 123°24'0 0.0
2017-Sep-27 23:56N 48°53' W 123°24'0 0.0
2017-Sep-27 23:20N 48°53' W 123°24'0 0.0
2017-Sep-27 22:56N 48°53' W 123°24'0 0.0
2017-Sep-27 22:08N 48°53' W 123°24'0 0.0
2017-Sep-27 21:56N 48°53' W 123°24'0 0.0
2017-Sep-27 21:20N 48°53' W 123°24'0 0.0
2017-Sep-27 20:56N 48°53' W 123°24'0 0.0
2017-Sep-27 20:26N 48°53' W 123°24'0 0.0
2017-Sep-27 19:38N 48°53' W 123°24'0 0.0
2017-Sep-27 19:26N 48°53' W 123°24'2 5.6
2017-Sep-27 19:01N 48°55' W 123°27'22 7.4
2017-Sep-27 15:59N 49°09' W 123°52'3 4.5
2017-Sep-27 15:26N 49°10' W 123°56'0 0.0
2017-Sep-27 14:13N 49°10' W 123°56'0 0.0
2017-Sep-27 13:50N 49°10' W 123°56'0 0.0
2017-Sep-27 13:26N 49°10' W 123°56'0 0.0
2017-Sep-27 12:50N 49°10' W 123°56'0 0.0
2017-Sep-27 12:26N 49°10' W 123°56'0 0.0
2017-Sep-27 11:44N 49°10' W 123°56'0 0.0
2017-Sep-27 11:17N 49°10' W 123°56'0 0.0
2017-Sep-27 10:56N 49°10' W 123°56'0 0.0
2017-Sep-27 10:26N 49°10' W 123°56'0 0.0
2017-Sep-27 09:59N 49°10' W 123°56'0 0.0
2017-Sep-27 09:29N 49°10' W 123°56'0 0.0
2017-Sep-27 08:47N 49°10' W 123°56'0 0.0
2017-Sep-27 08:14N 49°10' W 123°56'0 0.0
2017-Sep-27 07:56N 49°10' W 123°56'0 0.0
2017-Sep-27 07:29N 49°10' W 123°56'0 0.0
2017-Sep-27 06:59N 49°10' W 123°56'0 0.0
2017-Sep-27 06:29N 49°10' W 123°56'0 0.0
2017-Sep-27 05:59N 49°10' W 123°56'0 0.0
2017-Sep-27 05:29N 49°10' W 123°56'0 0.0
2017-Sep-27 04:53N 49°10' W 123°56'0 0.0
2017-Sep-27 04:28N 49°10' W 123°56'0 0.0
2017-Sep-27 03:56N 49°10' W 123°56'0 0.0
2017-Sep-27 03:29N 49°10' W 123°56'0 0.0
2017-Sep-27 02:59N 49°10' W 123°56'0 0.0
2017-Sep-27 02:23N 49°10' W 123°56'0 0.0
2017-Sep-27 01:59N 49°10' W 123°56'0 0.0
2017-Sep-27 01:26N 49°10' W 123°56'0 0.0
2017-Sep-27 00:59N 49°10' W 123°56'0 0.0
2017-Sep-27 00:29N 49°10' W 123°56'0 0.0
2017-Sep-26 23:59N 49°10' W 123°56'0 0.0
2017-Sep-26 23:05N 49°10' W 123°56'0 0.0
2017-Sep-26 22:59N 49°10' W 123°56'0 0.0
2017-Sep-26 22:29N 49°10' W 123°56'0 0.0
2017-Sep-26 21:58N 49°10' W 123°56'0 0.0
2017-Sep-26 21:29N 49°10' W 123°56'0 0.0
2017-Sep-26 20:59N 49°10' W 123°56'2 0.5
2017-Sep-26 17:17N 49°12' W 123°57'2 6.2
2017-Sep-26 16:55N 49°14' W 123°57'3 7.1
2017-Sep-26 16:30N 49°16' W 124°00'3 6.9
2017-Sep-26 16:00N 49°18' W 124°04'4 7.2
2017-Sep-26 15:30N 49°21' W 124°08'8 7.4
2017-Sep-26 14:25N 49°26' W 124°18'3 7.3
2017-Sep-26 14:00N 49°28' W 124°21'2 2.5
2017-Sep-26 13:07N 49°30' W 124°21'0 0.0
2017-Sep-26 08:26N 49°30' W 124°21'0 0.0
2017-Sep-26 07:55N 49°30' W 124°21'0 0.0
2017-Sep-26 07:23N 49°30' W 124°21'0 0.0
2017-Sep-26 04:07N 49°30' W 124°21'0 0.0
2017-Sep-26 03:46N 49°30' W 124°21'0 0.0
2017-Sep-26 02:50N 49°30' W 124°21'0 0.0
2017-Sep-26 02:25N 49°30' W 124°21'0 0.0
2017-Sep-26 01:58N 49°30' W 124°21'0 0.0
2017-Sep-25 22:34N 49°30' W 124°21'0 0.0
2017-Sep-25 21:10N 49°30' W 124°21'0 0.0
2017-Sep-25 20:41N 49°30' W 124°21'0 0.0
2017-Sep-25 18:40N 49°30' W 124°21'0 0.0
2017-Sep-25 18:22N 49°30' W 124°21'0 0.0
2017-Sep-25 16:22N 49°30' W 124°21'0 0.0
2017-Sep-25 15:46N 49°30' W 124°21'0 0.0
2017-Sep-25 15:28N 49°30' W 124°21'0 0.0
2017-Sep-25 14:58N 49°30' W 124°21'0 0.1
2017-Sep-25 14:23N 49°30' W 124°21'0 0.0
2017-Sep-25 13:56N 49°30' W 124°21'0 0.0
2017-Sep-25 13:17N 49°30' W 124°21'0 0.0
2017-Sep-25 11:20N 49°30' W 124°21'0 0.0
2017-Sep-25 10:56N 49°30' W 124°21'0 0.0
2017-Sep-25 05:11N 49°30' W 124°21'0 0.0
2017-Sep-25 04:41N 49°30' W 124°21'0 0.0
2017-Sep-25 03:17N 49°30' W 124°21'0 0.0
2017-Sep-25 02:20N 49°30' W 124°21'0 0.0
2017-Sep-25 01:14N 49°30' W 124°21'0 0.0
2017-Sep-25 00:59N 49°30' W 124°21'0 0.0
2017-Sep-25 00:20N 49°30' W 124°21'0 0.1
2017-Sep-24 23:55N 49°30' W 124°21'1 2.4
2017-Sep-24 23:30N 49°29' W 124°22'1 0.9
2017-Sep-24 22:23N 49°30' W 124°21'0 0.0
2017-Sep-24 21:50N 49°30' W 124°21'0 0.0
2017-Sep-24 21:29N 49°30' W 124°21'0 0.0
2017-Sep-24 20:56N 49°30' W 124°21'0 0.0
2017-Sep-24 20:06N 49°30' W 124°21'1 4.3
2017-Sep-24 19:56N 49°29' W 124°22'2 5.6
2017-Sep-24 19:30N 49°30' W 124°25'4 7.3
2017-Sep-24 19:00N 49°33' W 124°29'4 7.6
2017-Sep-24 18:30N 49°37' W 124°32'4 7.6
2017-Sep-24 17:59N 49°40' W 124°35'10 7.2
2017-Sep-24 16:33N 49°50' W 124°41'0 7.1
2017-Sep-24 16:29N 49°50' W 124°41'3 7.3
2017-Sep-24 16:00N 49°54' W 124°42'4 7.1
2017-Sep-24 15:28N 49°57' W 124°45'4 7.1
2017-Sep-24 14:55N 50°00' W 124°48'3 7.5
2017-Sep-24 14:29N 50°03' W 124°51'4 7.6
2017-Sep-24 14:00N 50°06' W 124°54'3 0.5
2017-Sep-24 08:11N 50°09' W 124°55'0 0.0
2017-Sep-24 07:50N 50°09' W 124°55'0 0.0
2017-Sep-24 07:23N 50°09' W 124°55'0 0.0
2017-Sep-24 06:53N 50°09' W 124°55'0 0.0
2017-Sep-24 03:47N 50°09' W 124°55'0 0.0
2017-Sep-24 03:20N 50°09' W 124°55'0 0.0
2017-Sep-24 01:41N 50°09' W 124°55'1 0.2
2017-Sep-23 23:11N 50°08' W 124°55'1 5.0
2017-Sep-23 22:57N 50°08' W 124°54'3 7.5
2017-Sep-23 22:30N 50°11' W 124°56'4 7.7
2017-Sep-23 22:00N 50°14' W 124°59'4 7.2
2017-Sep-23 21:30N 50°17' W 125°03'4 7.0
2017-Sep-23 21:00N 50°20' W 125°06'  

Dump ship's entire track history